createdAt,value
2023-08-30T03:23:14.156Z,98981.59
2023-08-30T03:26:17.546Z,98983.62
2023-08-30T03:29:19.827Z,98990.66
2023-08-30T03:32:23.112Z,98988.09
2023-08-30T03:35:25.311Z,98993.38
2023-08-30T03:38:27.750Z,98989.75
2023-08-30T03:41:29.964Z,98988.47
2023-08-30T03:44:32.776Z,98978.09
2023-08-30T03:47:35.080Z,98979.13
2023-08-30T03:50:37.565Z,98983.44
2023-08-30T03:53:39.720Z,98990.31
2023-08-30T03:56:42.175Z,98994.91
2023-08-30T03:59:45.656Z,99000.31
2023-08-30T04:02:49.428Z,99000.41
2023-08-30T04:05:58.458Z,99003.84
2023-08-30T04:09:00.694Z,99004.63
2023-08-30T04:12:05.809Z,99002.97
2023-08-30T04:15:09.038Z,99006.53
2023-08-30T04:18:11.847Z,99012.47
2023-08-30T04:21:14.472Z,99014.28
2023-08-30T04:24:17.074Z,99016.34
2023-08-30T04:27:19.215Z,99020.97
2023-08-30T04:30:21.915Z,99025.06
2023-08-30T04:33:25.105Z,99032.13
2023-08-30T04:36:27.552Z,99035.78
2023-08-30T04:39:29.798Z,99032.13
2023-08-30T04:42:32.840Z,99039.13
2023-08-30T04:45:37.937Z,99031.94
2023-08-30T04:48:41.050Z,99040.13
2023-08-30T04:51:44.944Z,99032.09
2023-08-30T04:54:47.520Z,99029.28
2023-08-30T04:57:49.819Z,99029.28
2023-08-30T05:00:52.603Z,99023.97
2023-08-30T05:03:54.877Z,99026.69
2023-08-30T05:06:58.736Z,99034.84
2023-08-30T05:10:00.949Z,99041.91
2023-08-30T05:13:04.873Z,99044.53
2023-08-30T05:16:07.632Z,99034.84
2023-08-30T05:19:10.257Z,99027.78
2023-08-30T05:22:12.537Z,99027.78
2023-08-30T05:25:15.234Z,99035.69
2023-08-30T05:28:17.468Z,99040.94
2023-08-30T05:31:20.209Z,99040.91
2023-08-30T05:34:28.276Z,99047.97
2023-08-30T05:37:30.996Z,99060.38
2023-08-30T05:40:33.353Z,99055.97
2023-08-30T05:43:38.854Z,99060.38
2023-08-30T05:46:41.631Z,99064.78
2023-08-30T05:49:44.090Z,99057.72
2023-08-30T05:52:46.365Z,99054.19
2023-08-30T05:55:48.848Z,99059.53
2023-08-30T05:58:51.076Z,99054.19
2023-08-30T06:01:53.709Z,99061.25
2023-08-30T06:04:56.406Z,99048.03
2023-08-30T06:07:58.835Z,99043.56
2023-08-30T06:11:01.407Z,99047.94
2023-08-30T06:14:03.580Z,99057.66
2023-08-30T06:17:06.169Z,99063.75
2023-08-30T06:20:08.763Z,99070.59
2023-08-30T06:23:11.340Z,99075.72
2023-08-30T06:26:13.715Z,99078.94
2023-08-30T06:29:16.194Z,99071.91
2023-08-30T06:32:18.814Z,99075.50
2023-08-30T06:35:21.581Z,99067.59
2023-08-30T06:38:23.736Z,99075.06
2023-08-30T06:41:26.622Z,99081.38
2023-08-30T06:44:29.837Z,99078.00
2023-08-30T06:47:32.637Z,99070.97
2023-08-30T06:50:35.508Z,99069.03
2023-08-30T06:53:37.957Z,99067.25
2023-08-30T06:56:40.104Z,99063.56
2023-08-30T06:59:42.607Z,99068.31
2023-08-30T07:02:46.926Z,99066.13
2023-08-30T07:05:52.371Z,99068.25
2023-08-30T07:08:54.648Z,99078.22
2023-08-30T07:11:57.487Z,99075.53
2023-08-30T07:14:59.891Z,99075.34
2023-08-30T07:18:02.652Z,99075.91
2023-08-30T07:21:04.948Z,99075.00
2023-08-30T07:24:08.287Z,99069.09
2023-08-30T07:27:10.513Z,99075.84
2023-08-30T07:30:13.440Z,99078.47
2023-08-30T07:33:15.636Z,99089.66
2023-08-30T07:36:18.296Z,99087.56
2023-08-30T07:39:20.786Z,99088.81
2023-08-30T07:42:23.447Z,99097.56
2023-08-30T07:45:25.772Z,99107.50
2023-08-30T07:48:28.266Z,99110.81
2023-08-30T07:51:32.497Z,99111.78
2023-08-30T07:54:34.962Z,99105.25
2023-08-30T07:57:38.999Z,99104.31
2023-08-30T08:00:41.479Z,99107.94
2023-08-30T08:03:52.360Z,99112.78
2023-08-30T08:07:03.602Z,99108.53
2023-08-30T08:10:07.015Z,99110.13
2023-08-30T08:13:09.676Z,99113.84
2023-08-30T08:16:12.628Z,99124.31
2023-08-30T08:19:14.986Z,99131.28
2023-08-30T08:22:17.526Z,99133.44
2023-08-30T08:25:19.861Z,99121.62
2023-08-30T08:28:22.314Z,99115.13
2023-08-30T08:31:24.867Z,99117.72
2023-08-30T08:34:27.617Z,99122.66
2023-08-30T08:37:30.068Z,99119.84
2023-08-30T08:40:41.683Z,99119.38
2023-08-30T08:43:45.838Z,99122.97
2023-08-30T08:46:49.202Z,99124.03
2023-08-30T08:49:52.288Z,99122.72
2023-08-30T08:53:00.234Z,99135.16
2023-08-30T08:56:03.248Z,99128.53
2023-08-30T08:59:07.701Z,99129.78
2023-08-30T09:02:13.065Z,99129.09
2023-08-30T09:05:16.308Z,99134.84
2023-08-30T09:08:18.610Z,99140.03
2023-08-30T09:11:22.757Z,99133.34
2023-08-30T09:14:28.036Z,99135.88
2023-08-30T09:17:40.868Z,99142.56
2023-08-30T09:20:43.261Z,99144.28
2023-08-30T09:23:45.722Z,99154.69
2023-08-30T09:26:55.642Z,99155.47
2023-08-30T09:29:59.620Z,99158.31
2023-08-30T09:33:04.069Z,99158.06
2023-08-30T09:36:11.309Z,99156.31
2023-08-30T09:39:15.628Z,99161.38
2023-08-30T09:42:23.203Z,99162.13
2023-08-30T09:45:27.826Z,99162.59
2023-08-30T09:48:30.477Z,99168.69
2023-08-30T09:51:34.418Z,99172.69
2023-08-30T09:54:42.758Z,99174.16
2023-08-30T09:57:45.958Z,99167.88
2023-08-30T10:00:52.271Z,99185.69
2023-08-30T10:03:57.527Z,99182.22
2023-08-30T10:07:00.465Z,99181.59
2023-08-30T10:10:10.011Z,99179.69
2023-08-30T10:13:13.816Z,99185.16
2023-08-30T10:16:21.540Z,99183.50
2023-08-30T10:19:28.258Z,99179.81
2023-08-30T10:22:31.585Z,99169.69
2023-08-30T10:25:35.011Z,99179.47
2023-08-30T10:28:39.611Z,99173.03
2023-08-30T10:31:41.836Z,99183.97
2023-08-30T10:34:50.345Z,99167.00
2023-08-30T10:38:00.864Z,99177.53
2023-08-30T10:41:09.768Z,99177.44
2023-08-30T10:44:15.667Z,99176.59
2023-08-30T10:47:21.573Z,99175.94
2023-08-30T10:50:35.000Z,99169.00
2023-08-30T10:53:37.483Z,99173.19
2023-08-30T10:57:01.840Z,99172.25
2023-08-30T11:00:19.919Z,99178.66
2023-08-30T11:03:22.205Z,99160.97
2023-08-30T11:06:24.775Z,99160.72
2023-08-30T11:09:27.751Z,99162.53
2023-08-30T11:12:31.605Z,99164.38
2023-08-30T11:15:33.820Z,99161.84
2023-08-30T11:18:43.991Z,99169.78
2023-08-30T11:21:47.143Z,99162.94
2023-08-30T11:24:50.443Z,99151.94
2023-08-30T11:28:04.699Z,99150.91
2023-08-30T11:31:07.177Z,99154.59
2023-08-30T11:34:09.378Z,99154.00
2023-08-30T11:37:13.221Z,99153.81
2023-08-30T11:40:15.665Z,99160.78
2023-08-30T11:43:18.588Z,99149.50
2023-08-30T11:46:22.393Z,99146.72
2023-08-30T11:49:24.996Z,99149.47
2023-08-30T11:52:27.699Z,99154.09
2023-08-30T11:55:30.450Z,99152.56
2023-08-30T11:58:36.560Z,99155.31
2023-08-30T12:01:39.151Z,99137.75
2023-08-30T12:04:46.773Z,99141.31
2023-08-30T12:07:49.170Z,99143.41
2023-08-30T12:10:52.671Z,99144.91
2023-08-30T12:14:03.084Z,99142.47
2023-08-30T12:17:06.789Z,99140.34
2023-08-30T12:20:19.174Z,99136.12
2023-08-30T12:23:33.523Z,99139.53
2023-08-30T12:26:35.817Z,99141.44
2023-08-30T12:29:38.337Z,99137.31
2023-08-30T12:32:40.521Z,99143.72
2023-08-30T12:35:43.051Z,99132.47
2023-08-30T12:38:45.183Z,99134.56
2023-08-30T12:41:48.403Z,99130.31
2023-08-30T12:44:50.833Z,99130.59
2023-08-30T12:47:53.339Z,99126.78
2023-08-30T12:50:55.615Z,99119.81
2023-08-30T12:53:58.106Z,99127.31
2023-08-30T12:57:00.257Z,99121.81
2023-08-30T13:00:02.937Z,99111.16
2023-08-30T13:03:05.336Z,99113.97
2023-08-30T13:06:07.971Z,99122.16
2023-08-30T13:09:10.680Z,99117.03
2023-08-30T13:12:13.140Z,99116.19
2023-08-30T13:15:15.467Z,99122.94
2023-08-30T13:18:18.713Z,99120.97
2023-08-30T13:21:27.476Z,99120.34
2023-08-30T13:24:33.903Z,99126.97
2023-08-30T13:27:36.164Z,99123.81
2023-08-30T13:30:45.357Z,99129.31
2023-08-30T13:33:47.688Z,99128.25
2023-08-30T13:36:50.235Z,99139.66
2023-08-30T13:39:54.661Z,99136.12
2023-08-30T13:42:57.793Z,99139.31
2023-08-30T13:46:01.047Z,99143.94
2023-08-30T13:49:03.669Z,99144.69
2023-08-30T13:52:06.253Z,99138.78
2023-08-30T13:55:09.149Z,99133.09
2023-08-30T13:58:11.279Z,99123.91
2023-08-30T14:01:13.731Z,99129.50
2023-08-30T14:04:16.156Z,99140.13
2023-08-30T14:07:19.091Z,99141.00
2023-08-30T14:10:25.606Z,99153.94
2023-08-30T14:13:29.325Z,99146.97
2023-08-30T14:16:31.824Z,99149.50
2023-08-30T14:19:36.112Z,99146.47
2023-08-30T14:22:39.195Z,99142.91
2023-08-30T14:25:41.357Z,99142.59
2023-08-30T14:28:43.847Z,99148.81
2023-08-30T14:31:46.103Z,99156.16
2023-08-30T14:34:48.708Z,99152.66
2023-08-30T14:37:51.866Z,99153.44
2023-08-30T14:40:57.674Z,99163.44
2023-08-30T14:43:59.932Z,99170.78
2023-08-30T14:47:02.504Z,99169.09
2023-08-30T14:50:05.313Z,99172.59
2023-08-30T14:53:08.085Z,99167.97
2023-08-30T14:56:12.198Z,99170.59
2023-08-30T14:59:14.674Z,99179.38
2023-08-30T15:02:17.196Z,99179.53
2023-08-30T15:05:20.156Z,99181.31
